sensor_id;sensor_type;location;lat;lon;timestamp;temperature;humidity
55329;DHT22;41205;44.264;19.884;2023-01-29T00:01:47;77.00;2227.20
55329;DHT22;41205;44.264;19.884;2023-01-29T00:04:13;77.10;2227.20
55329;DHT22;41205;44.264;19.884;2023-01-29T00:06:39;77.10;2227.20
55329;DHT22;41205;44.264;19.884;2023-01-29T00:09:05;77.00;2227.20
55329;DHT22;41205;44.264;19.884;2023-01-29T00:11:30;77.00;2227.20
55329;DHT22;41205;44.264;19.884;2023-01-29T00:13:56;77.10;2227.20
55329;DHT22;41205;44.264;19.884;2023-01-29T00:16:23;77.00;2227.20
55329;DHT22;41205;44.264;19.884;2023-01-29T00:18:48;76.90;2227.20
55329;DHT22;41205;44.264;19.884;2023-01-29T00:21:17;76.90;2227.20
55329;DHT22;41205;44.264;19.884;2023-01-29T00:23:43;77.00;2227.20
55329;DHT22;41205;44.264;19.884;2023-01-29T00:26:09;76.90;2227.20
55329;DHT22;41205;44.264;19.884;2023-01-29T00:28:36;77.00;2227.20
55329;DHT22;41205;44.264;19.884;2023-01-29T00:31:12;77.00;2227.20
55329;DHT22;41205;44.264;19.884;2023-01-29T00:33:38;76.90;2227.20
55329;DHT22;41205;44.264;19.884;2023-01-29T00:36:08;77.00;2227.20
55329;DHT22;41205;44.264;19.884;2023-01-29T00:38:35;77.10;2227.20
55329;DHT22;41205;44.264;19.884;2023-01-29T00:41:20;77.20;2227.20
55329;DHT22;41205;44.264;19.884;2023-01-29T00:44:05;77.20;2227.20
55329;DHT22;41205;44.264;19.884;2023-01-29T00:46:50;77.30;2227.20
55329;DHT22;41205;44.264;19.884;2023-01-29T00:49:16;77.20;2227.20
55329;DHT22;41205;44.264;19.884;2023-01-29T00:51:41;77.00;2227.20
55329;DHT22;41205;44.264;19.884;2023-01-29T00:54:07;77.20;2227.20
55329;DHT22;41205;44.264;19.884;2023-01-29T00:56:35;77.20;2227.20
55329;DHT22;41205;44.264;19.884;2023-01-29T00:59:01;77.00;2227.20
55329;DHT22;41205;44.264;19.884;2023-01-29T01:01:27;76.90;2227.20
55329;DHT22;41205;44.264;19.884;2023-01-29T01:04:11;77.00;2227.20
55329;DHT22;41205;44.264;19.884;2023-01-29T01:06:38;77.00;2227.20
55329;DHT22;41205;44.264;19.884;2023-01-29T01:09:05;77.00;2227.20
55329;DHT22;41205;44.264;19.884;2023-01-29T01:11:49;76.90;2227.20
55329;DHT22;41205;44.264;19.884;2023-01-29T01:14:16;76.80;2227.20
55329;DHT22;41205;44.264;19.884;2023-01-29T01:16:44;76.90;2227.20
55329;DHT22;41205;44.264;19.884;2023-01-29T01:19:11;76.90;2227.20
55329;DHT22;41205;44.264;19.884;2023-01-29T01:21:37;76.90;2227.20
55329;DHT22;41205;44.264;19.884;2023-01-29T01:24:02;76.90;2227.20
55329;DHT22;41205;44.264;19.884;2023-01-29T01:26:33;77.00;2227.20
55329;DHT22;41205;44.264;19.884;2023-01-29T01:28:58;77.00;2227.20
55329;DHT22;41205;44.264;19.884;2023-01-29T01:31:24;77.10;2227.20
55329;DHT22;41205;44.264;19.884;2023-01-29T01:33:50;77.20;2227.20
55329;DHT22;41205;44.264;19.884;2023-01-29T01:36:16;77.20;2227.20
55329;DHT22;41205;44.264;19.884;2023-01-29T01:38:43;77.20;2227.20
55329;DHT22;41205;44.264;19.884;2023-01-29T01:41:13;77.10;2227.20
55329;DHT22;41205;44.264;19.884;2023-01-29T01:43:59;77.10;2227.20
55329;DHT22;41205;44.264;19.884;2023-01-29T01:46:30;77.00;2227.20
55329;DHT22;41205;44.264;19.884;2023-01-29T01:51:30;76.90;2227.20
55329;DHT22;41205;44.264;19.884;2023-01-29T01:54:04;76.90;2227.20
55329;DHT22;41205;44.264;19.884;2023-01-29T01:56:33;77.10;2227.20
55329;DHT22;41205;44.264;19.884;2023-01-29T01:59:07;76.90;2227.20
55329;DHT22;41205;44.264;19.884;2023-01-29T02:01:34;76.80;2227.20
55329;DHT22;41205;44.264;19.884;2023-01-29T02:04:20;76.90;2227.20
55329;DHT22;41205;44.264;19.884;2023-01-29T02:07:07;76.90;2227.20
55329;DHT22;41205;44.264;19.884;2023-01-29T02:10:19;77.10;2227.20
55329;DHT22;41205;44.264;19.884;2023-01-29T02:12:46;77.00;2227.20
55329;DHT22;41205;44.264;19.884;2023-01-29T02:15:12;76.90;2227.20
55329;DHT22;41205;44.264;19.884;2023-01-29T02:17:38;76.90;2227.20
55329;DHT22;41205;44.264;19.884;2023-01-29T02:20:30;77.00;2227.20
55329;DHT22;41205;44.264;19.884;2023-01-29T02:34:23;77.00;2227.20
55329;DHT22;41205;44.264;19.884;2023-01-29T02:37:08;76.90;2227.20
55329;DHT22;41205;44.264;19.884;2023-01-29T02:39:56;76.80;2227.20
55329;DHT22;41205;44.264;19.884;2023-01-29T02:42:36;76.80;2227.20
55329;DHT22;41205;44.264;19.884;2023-01-29T02:45:09;76.80;2227.20
55329;DHT22;41205;44.264;19.884;2023-01-29T02:53:05;77.20;2227.20
55329;DHT22;41205;44.264;19.884;2023-01-29T02:58:29;52.10;2227.20
55329;DHT22;41205;44.264;19.884;2023-01-29T03:00:52;52.10;2227.20
55329;DHT22;41205;44.264;19.884;2023-01-29T03:03:32;52.10;2227.20
55329;DHT22;41205;44.264;19.884;2023-01-29T03:06:06;52.10;2227.20
55329;DHT22;41205;44.264;19.884;2023-01-29T03:08:53;52.10;2227.20
55329;DHT22;41205;44.264;19.884;2023-01-29T03:11:20;76.80;2227.20
55329;DHT22;41205;44.264;19.884;2023-01-29T03:16:20;76.90;2227.20
55329;DHT22;41205;44.264;19.884;2023-01-29T03:19:40;76.90;2227.20
55329;DHT22;41205;44.264;19.884;2023-01-29T03:22:01;76.90;2227.20
55329;DHT22;41205;44.264;19.884;2023-01-29T03:24:36;52.10;2227.20
55329;DHT22;41205;44.264;19.884;2023-01-29T03:27:27;76.90;2227.20
55329;DHT22;41205;44.264;19.884;2023-01-29T03:30:15;52.10;2227.20
55329;DHT22;41205;44.264;19.884;2023-01-29T03:33:04;76.80;2227.20
55329;DHT22;41205;44.264;19.884;2023-01-29T03:35:35;76.80;2227.20
55329;DHT22;41205;44.264;19.884;2023-01-29T03:38:06;77.00;2227.20
55329;DHT22;41205;44.264;19.884;2023-01-29T03:40:51;76.90;2227.20
55329;DHT22;41205;44.264;19.884;2023-01-29T03:43:46;76.80;2227.20
55329;DHT22;41205;44.264;19.884;2023-01-29T03:46:16;76.90;2227.20
55329;DHT22;41205;44.264;19.884;2023-01-29T03:51:55;76.90;2227.20
55329;DHT22;41205;44.264;19.884;2023-01-29T03:54:31;52.00;2227.20
55329;DHT22;41205;44.264;19.884;2023-01-29T04:02:39;76.80;2227.20
55329;DHT22;41205;44.264;19.884;2023-01-29T04:05:13;76.80;2227.20
55329;DHT22;41205;44.264;19.884;2023-01-29T04:07:41;77.00;2227.20
55329;DHT22;41205;44.264;19.884;2023-01-29T04:10:20;76.90;2227.20
55329;DHT22;41205;44.264;19.884;2023-01-29T04:12:55;76.90;2227.20
55329;DHT22;41205;44.264;19.884;2023-01-29T04:15:26;76.90;2227.20
55329;DHT22;41205;44.264;19.884;2023-01-29T04:17:55;76.80;2227.20
55329;DHT22;41205;44.264;19.884;2023-01-29T04:20:21;76.80;2227.20
55329;DHT22;41205;44.264;19.884;2023-01-29T04:22:51;76.80;2227.20
55329;DHT22;41205;44.264;19.884;2023-01-29T04:25:22;76.90;2227.20
55329;DHT22;41205;44.264;19.884;2023-01-29T04:27:56;77.00;2227.20
55329;DHT22;41205;44.264;19.884;2023-01-29T04:38:39;77.00;2227.20
55329;DHT22;41205;44.264;19.884;2023-01-29T04:52:04;52.10;2227.20
55329;DHT22;41205;44.264;19.884;2023-01-29T05:02:45;76.80;2227.20
55329;DHT22;41205;44.264;19.884;2023-01-29T05:05:12;77.10;2227.20
55329;DHT22;41205;44.264;19.884;2023-01-29T05:07:41;76.90;2227.20
55329;DHT22;41205;44.264;19.884;2023-01-29T05:12:36;77.10;2227.20
55329;DHT22;41205;44.264;19.884;2023-01-29T05:15:07;77.10;2227.20
55329;DHT22;41205;44.264;19.884;2023-01-29T05:17:33;77.10;2227.20
55329;DHT22;41205;44.264;19.884;2023-01-29T05:19:59;77.00;2227.20
55329;DHT22;41205;44.264;19.884;2023-01-29T05:22:25;77.00;2227.20
55329;DHT22;41205;44.264;19.884;2023-01-29T05:24:51;76.90;2227.20
55329;DHT22;41205;44.264;19.884;2023-01-29T05:27:23;76.90;2227.20
55329;DHT22;41205;44.264;19.884;2023-01-29T05:30:11;76.90;2227.20
55329;DHT22;41205;44.264;19.884;2023-01-29T05:32:36;76.90;2227.20
55329;DHT22;41205;44.264;19.884;2023-01-29T05:35:04;77.10;2227.20
55329;DHT22;41205;44.264;19.884;2023-01-29T06:21:24;52.10;2227.20
55329;DHT22;41205;44.264;19.884;2023-01-29T06:23:52;52.10;2227.20
55329;DHT22;41205;44.264;19.884;2023-01-29T06:26:18;52.10;2227.20
55329;DHT22;41205;44.264;19.884;2023-01-29T06:28:46;76.80;2227.20
55329;DHT22;41205;44.264;19.884;2023-01-29T06:31:12;52.10;2227.20
55329;DHT22;41205;44.264;19.884;2023-01-29T06:33:38;52.10;2227.20
55329;DHT22;41205;44.264;19.884;2023-01-29T06:36:04;52.10;2227.20
55329;DHT22;41205;44.264;19.884;2023-01-29T06:38:31;76.80;2227.20
55329;DHT22;41205;44.264;19.884;2023-01-29T06:40:57;76.80;2227.20
55329;DHT22;41205;44.264;19.884;2023-01-29T06:48:16;52.10;2227.20
55329;DHT22;41205;44.264;19.884;2023-01-29T06:50:42;52.10;2227.20
55329;DHT22;41205;44.264;19.884;2023-01-29T09:39:07;77.40;2227.20
55329;DHT22;41205;44.264;19.884;2023-01-29T09:47:03;77.40;2227.20
55329;DHT22;41205;44.264;19.884;2023-01-29T09:49:42;77.40;2227.20
55329;DHT22;41205;44.264;19.884;2023-01-29T09:52:17;77.50;2227.20
55329;DHT22;41205;44.264;19.884;2023-01-29T09:55:03;77.60;2227.20
55329;DHT22;41205;44.264;19.884;2023-01-29T09:57:54;77.70;2227.20
55329;DHT22;41205;44.264;19.884;2023-01-29T10:00:43;77.50;2227.20
55329;DHT22;41205;44.264;19.884;2023-01-29T10:03:23;77.50;2227.20
55329;DHT22;41205;44.264;19.884;2023-01-29T10:06:04;102.40;2227.20
55329;DHT22;41205;44.264;19.884;2023-01-29T10:11:45;77.60;2227.20
55329;DHT22;41205;44.264;19.884;2023-01-29T10:14:29;77.60;2227.20
55329;DHT22;41205;44.264;19.884;2023-01-29T10:22:42;77.50;2227.20
55329;DHT22;41205;44.264;19.884;2023-01-29T10:25:15;77.50;2227.20
55329;DHT22;41205;44.264;19.884;2023-01-29T10:27:48;77.70;2227.20
55329;DHT22;41205;44.264;19.884;2023-01-29T10:32:47;77.70;2227.20
55329;DHT22;41205;44.264;19.884;2023-01-29T10:35:36;77.50;2227.20
55329;DHT22;41205;44.264;19.884;2023-01-29T10:38:36;77.60;2227.20
55329;DHT22;41205;44.264;19.884;2023-01-29T10:55:24;77.70;2227.20
55329;DHT22;41205;44.264;19.884;2023-01-29T11:00:40;102.40;2227.20
55329;DHT22;41205;44.264;19.884;2023-01-29T11:03:21;102.50;2227.20
55329;DHT22;41205;44.264;19.884;2023-01-29T11:09:49;102.40;2227.20
55329;DHT22;41205;44.264;19.884;2023-01-29T11:11:53;102.50;2227.20
55329;DHT22;41205;44.264;19.884;2023-01-29T11:14:27;102.40;2227.20
55329;DHT22;41205;44.264;19.884;2023-01-29T11:16:54;102.50;2227.20
55329;DHT22;41205;44.264;19.884;2023-01-29T11:19:38;102.50;2227.20
55329;DHT22;41205;44.264;19.884;2023-01-29T11:22:04;77.70;2227.20
55329;DHT22;41205;44.264;19.884;2023-01-29T11:24:36;77.70;2227.20
55329;DHT22;41205;44.264;19.884;2023-01-29T11:27:22;102.40;2227.20
55329;DHT22;41205;44.264;19.884;2023-01-29T11:29:51;77.70;2227.20
55329;DHT22;41205;44.264;19.884;2023-01-29T11:32:24;102.40;2227.20
55329;DHT22;41205;44.264;19.884;2023-01-29T11:35:05;102.50;2227.20
55329;DHT22;41205;44.264;19.884;2023-01-29T11:37:44;102.50;2227.20
55329;DHT22;41205;44.264;19.884;2023-01-29T11:40:32;102.40;2227.20
55329;DHT22;41205;44.264;19.884;2023-01-29T11:43:18;102.50;2227.20
55329;DHT22;41205;44.264;19.884;2023-01-29T11:45:44;102.50;2227.20
55329;DHT22;41205;44.264;19.884;2023-01-29T11:48:15;102.40;2227.20
55329;DHT22;41205;44.264;19.884;2023-01-29T11:50:42;77.70;2227.20
55329;DHT22;41205;44.264;19.884;2023-01-29T11:53:30;102.40;2227.20
55329;DHT22;41205;44.264;19.884;2023-01-29T11:55:58;102.60;2227.20
55329;DHT22;41205;44.264;19.884;2023-01-29T11:58:29;102.60;2227.20
55329;DHT22;41205;44.264;19.884;2023-01-29T12:00:57;102.70;2227.20
55329;DHT22;41205;44.264;19.884;2023-01-29T12:03:48;102.80;2227.20
55329;DHT22;41205;44.264;19.884;2023-01-29T12:06:18;102.80;2227.20
55329;DHT22;41205;44.264;19.884;2023-01-29T12:08:57;102.70;2227.20
55329;DHT22;41205;44.264;19.884;2023-01-29T12:11:31;102.70;2227.20
55329;DHT22;41205;44.264;19.884;2023-01-29T12:14:14;102.60;2227.20
55329;DHT22;41205;44.264;19.884;2023-01-29T12:22:20;102.50;2227.20
55329;DHT22;41205;44.264;19.884;2023-01-29T12:25:23;102.50;2227.20
55329;DHT22;41205;44.264;19.884;2023-01-29T12:33:42;77.70;2227.20
55329;DHT22;41205;44.264;19.884;2023-01-29T12:36:22;102.40;2227.20
55329;DHT22;41205;44.264;19.884;2023-01-29T12:38:49;77.70;2227.20
55329;DHT22;41205;44.264;19.884;2023-01-29T12:44:32;102.50;2227.20
55329;DHT22;41205;44.264;19.884;2023-01-29T12:47:01;102.50;2227.20
55329;DHT22;41205;44.264;19.884;2023-01-29T12:49:32;102.50;2227.20
55329;DHT22;41205;44.264;19.884;2023-01-29T12:54:53;102.40;2227.20
55329;DHT22;41205;44.264;19.884;2023-01-29T13:00:17;77.70;2227.20
55329;DHT22;41205;44.264;19.884;2023-01-29T13:03:08;77.70;2227.20
55329;DHT22;41205;44.264;19.884;2023-01-29T13:08:49;77.70;2227.20
55329;DHT22;41205;44.264;19.884;2023-01-29T13:13:59;102.40;2227.20
55329;DHT22;41205;44.264;19.884;2023-01-29T13:16:29;102.50;2227.20
55329;DHT22;41205;44.264;19.884;2023-01-29T13:18:58;102.50;2227.20
55329;DHT22;41205;44.264;19.884;2023-01-29T13:21:36;102.50;2227.20
55329;DHT22;41205;44.264;19.884;2023-01-29T13:24:10;102.60;2227.20
55329;DHT22;41205;44.264;19.884;2023-01-29T13:26:38;102.60;2227.20
55329;DHT22;41205;44.264;19.884;2023-01-29T13:29:05;102.70;2227.20
55329;DHT22;41205;44.264;19.884;2023-01-29T13:31:34;102.80;2227.20
55329;DHT22;41205;44.264;19.884;2023-01-29T13:34:19;102.70;2227.20
55329;DHT22;41205;44.264;19.884;2023-01-29T13:36:57;102.70;2227.20
55329;DHT22;41205;44.264;19.884;2023-01-29T13:42:46;102.60;2227.20
55329;DHT22;41205;44.264;19.884;2023-01-29T13:47:50;102.50;2227.20
55329;DHT22;41205;44.264;19.884;2023-01-29T13:50:39;102.50;2227.20
55329;DHT22;41205;44.264;19.884;2023-01-29T13:53:07;102.40;2227.20
55329;DHT22;41205;44.264;19.884;2023-01-29T13:55:38;77.70;2227.20
55329;DHT22;41205;44.264;19.884;2023-01-29T13:58:18;102.50;2227.20
55329;DHT22;41205;44.264;19.884;2023-01-29T14:01:02;102.60;2227.20
55329;DHT22;41205;44.264;19.884;2023-01-29T14:13:42;102.50;2227.20
55329;DHT22;41205;44.264;19.884;2023-01-29T14:18:47;102.60;2227.20
55329;DHT22;41205;44.264;19.884;2023-01-29T14:21:21;102.60;2227.20
55329;DHT22;41205;44.264;19.884;2023-01-29T14:23:53;102.50;2227.20
55329;DHT22;41205;44.264;19.884;2023-01-29T14:26:53;102.60;2227.20
55329;DHT22;41205;44.264;19.884;2023-01-29T14:29:25;102.70;2227.20
55329;DHT22;41205;44.264;19.884;2023-01-29T14:34:40;102.60;2227.20
55329;DHT22;41205;44.264;19.884;2023-01-29T14:39:54;102.60;2227.20
55329;DHT22;41205;44.264;19.884;2023-01-29T14:42:25;102.50;2227.20
55329;DHT22;41205;44.264;19.884;2023-01-29T14:52:47;102.50;2227.20
55329;DHT22;41205;44.264;19.884;2023-01-29T14:55:34;102.40;2227.20
55329;DHT22;41205;44.264;19.884;2023-01-29T14:58:02;102.50;2227.20
55329;DHT22;41205;44.264;19.884;2023-01-29T15:00:37;102.60;2227.20
55329;DHT22;41205;44.264;19.884;2023-01-29T15:03:14;102.70;2227.20
55329;DHT22;41205;44.264;19.884;2023-01-29T15:05:43;102.60;2227.20
55329;DHT22;41205;44.264;19.884;2023-01-29T15:08:44;102.70;2227.20
55329;DHT22;41205;44.264;19.884;2023-01-29T15:11:26;102.70;2227.20
55329;DHT22;41205;44.264;19.884;2023-01-29T15:14:15;102.60;2227.20
55329;DHT22;41205;44.264;19.884;2023-01-29T15:17:04;102.50;2227.20
55329;DHT22;41205;44.264;19.884;2023-01-29T15:19:36;102.40;2227.20
55329;DHT22;41205;44.264;19.884;2023-01-29T15:22:07;102.50;2227.20
55329;DHT22;41205;44.264;19.884;2023-01-29T15:24:34;77.70;2227.20
55329;DHT22;41205;44.264;19.884;2023-01-29T15:27:00;77.60;2227.20
55329;DHT22;41205;44.264;19.884;2023-01-29T15:29:27;77.70;2227.20
55329;DHT22;41205;44.264;19.884;2023-01-29T15:31:54;102.40;2227.20
55329;DHT22;41205;44.264;19.884;2023-01-29T15:34:21;77.60;2227.20
55329;DHT22;41205;44.264;19.884;2023-01-29T15:36:48;77.70;2227.20
55329;DHT22;41205;44.264;19.884;2023-01-29T15:39:19;77.60;2227.20
55329;DHT22;41205;44.264;19.884;2023-01-29T15:41:50;77.60;2227.20
55329;DHT22;41205;44.264;19.884;2023-01-29T15:44:22;77.70;2227.20
55329;DHT22;41205;44.264;19.884;2023-01-29T15:46:49;77.50;2227.20
55329;DHT22;41205;44.264;19.884;2023-01-29T15:49:37;77.50;2227.20
55329;DHT22;41205;44.264;19.884;2023-01-29T15:52:13;77.60;2227.20
55329;DHT22;41205;44.264;19.884;2023-01-29T15:54:40;77.50;2227.20
55329;DHT22;41205;44.264;19.884;2023-01-29T15:57:05;77.50;2227.20
55329;DHT22;41205;44.264;19.884;2023-01-29T15:59:43;77.60;2227.20
55329;DHT22;41205;44.264;19.884;2023-01-29T16:05:00;77.60;2227.20
55329;DHT22;41205;44.264;19.884;2023-01-29T16:07:28;77.50;2227.20
55329;DHT22;41205;44.264;19.884;2023-01-29T16:09:54;77.50;2227.20
55329;DHT22;41205;44.264;19.884;2023-01-29T16:12:20;77.70;2227.20
55329;DHT22;41205;44.264;19.884;2023-01-29T16:14:48;77.70;2227.20
55329;DHT22;41205;44.264;19.884;2023-01-29T16:17:26;77.60;2227.20
55329;DHT22;41205;44.264;19.884;2023-01-29T16:19:58;77.70;2227.20
55329;DHT22;41205;44.264;19.884;2023-01-29T16:22:44;77.70;2227.20
55329;DHT22;41205;44.264;19.884;2023-01-29T16:25:13;77.70;2227.20
55329;DHT22;41205;44.264;19.884;2023-01-29T16:27:39;77.60;2227.20
55329;DHT22;41205;44.264;19.884;2023-01-29T16:30:12;77.60;2227.20
55329;DHT22;41205;44.264;19.884;2023-01-29T16:32:38;77.70;2227.20
55329;DHT22;41205;44.264;19.884;2023-01-29T16:35:04;77.70;2227.20
55329;DHT22;41205;44.264;19.884;2023-01-29T16:37:33;77.70;2227.20
55329;DHT22;41205;44.264;19.884;2023-01-29T16:40:26;77.70;2227.20
55329;DHT22;41205;44.264;19.884;2023-01-29T16:48:40;77.60;2227.20
55329;DHT22;41205;44.264;19.884;2023-01-29T16:54:05;77.70;2227.20
55329;DHT22;41205;44.264;19.884;2023-01-29T16:56:32;77.70;2227.20
55329;DHT22;41205;44.264;19.884;2023-01-29T16:59:00;102.40;2227.20
55329;DHT22;41205;44.264;19.884;2023-01-29T17:01:28;77.60;2227.20
55329;DHT22;41205;44.264;19.884;2023-01-29T17:04:01;77.60;2227.20
55329;DHT22;41205;44.264;19.884;2023-01-29T17:06:30;77.40;2227.20
55329;DHT22;41205;44.264;19.884;2023-01-29T17:08:57;77.40;2227.20
55329;DHT22;41205;44.264;19.884;2023-01-29T17:11:36;77.40;2227.20
55329;DHT22;41205;44.264;19.884;2023-01-29T17:14:05;77.30;2227.20
55329;DHT22;41205;44.264;19.884;2023-01-29T17:16:36;77.60;2227.20
55329;DHT22;41205;44.264;19.884;2023-01-29T17:19:17;77.60;2227.20
55329;DHT22;41205;44.264;19.884;2023-01-29T17:21:45;77.70;2227.20
55329;DHT22;41205;44.264;19.884;2023-01-29T17:24:11;77.70;2227.20
55329;DHT22;41205;44.264;19.884;2023-01-29T17:26:37;102.40;2227.20
55329;DHT22;41205;44.264;19.884;2023-01-29T17:29:03;102.40;2227.20
55329;DHT22;41205;44.264;19.884;2023-01-29T17:31:28;102.40;2227.20
55329;DHT22;41205;44.264;19.884;2023-01-29T17:33:54;102.60;2227.20
55329;DHT22;41205;44.264;19.884;2023-01-29T17:36:20;102.50;2227.20
55329;DHT22;41205;44.264;19.884;2023-01-29T17:38:46;102.50;2227.20
55329;DHT22;41205;44.264;19.884;2023-01-29T17:41:20;102.60;2227.20
55329;DHT22;41205;44.264;19.884;2023-01-29T17:43:46;102.70;2227.20
55329;DHT22;41205;44.264;19.884;2023-01-29T17:46:15;102.50;2227.20
55329;DHT22;41205;44.264;19.884;2023-01-29T17:48:41;102.40;2227.20
55329;DHT22;41205;44.264;19.884;2023-01-29T17:51:12;102.60;2227.20
55329;DHT22;41205;44.264;19.884;2023-01-29T17:53:39;77.70;2227.20
55329;DHT22;41205;44.264;19.884;2023-01-29T17:56:17;77.70;2227.20
55329;DHT22;41205;44.264;19.884;2023-01-29T17:58:45;77.70;2227.20
55329;DHT22;41205;44.264;19.884;2023-01-29T18:01:11;102.40;2227.20
55329;DHT22;41205;44.264;19.884;2023-01-29T18:03:37;102.50;2227.20
55329;DHT22;41205;44.264;19.884;2023-01-29T18:06:03;102.60;2227.20
55329;DHT22;41205;44.264;19.884;2023-01-29T18:08:33;102.60;2227.20
55329;DHT22;41205;44.264;19.884;2023-01-29T18:11:00;102.70;2227.20
55329;DHT22;41205;44.264;19.884;2023-01-29T18:13:26;102.70;2227.20
55329;DHT22;41205;44.264;19.884;2023-01-29T18:15:51;102.70;2227.20
55329;DHT22;41205;44.264;19.884;2023-01-29T18:18:19;102.70;2227.20
55329;DHT22;41205;44.264;19.884;2023-01-29T18:20:45;102.70;2227.20
55329;DHT22;41205;44.264;19.884;2023-01-29T18:23:11;102.70;2227.20
55329;DHT22;41205;44.264;19.884;2023-01-29T18:25:37;102.50;2227.20
55329;DHT22;41205;44.264;19.884;2023-01-29T18:28:04;102.50;2227.20
55329;DHT22;41205;44.264;19.884;2023-01-29T18:30:30;102.60;2227.20
55329;DHT22;41205;44.264;19.884;2023-01-29T18:32:56;102.60;2227.20
55329;DHT22;41205;44.264;19.884;2023-01-29T18:35:22;102.60;2227.20
55329;DHT22;41205;44.264;19.884;2023-01-29T18:37:48;102.70;2227.20
55329;DHT22;41205;44.264;19.884;2023-01-29T18:40:16;102.80;2227.20
55329;DHT22;41205;44.264;19.884;2023-01-29T18:42:43;102.80;2227.20
55329;DHT22;41205;44.264;19.884;2023-01-29T18:45:09;102.70;2227.20
55329;DHT22;41205;44.264;19.884;2023-01-29T18:47:35;102.80;2227.20
55329;DHT22;41205;44.264;19.884;2023-01-29T18:50:01;102.70;2227.20
55329;DHT22;41205;44.264;19.884;2023-01-29T18:52:26;102.50;2227.20
55329;DHT22;41205;44.264;19.884;2023-01-29T18:54:52;77.70;2227.20
55329;DHT22;41205;44.264;19.884;2023-01-29T18:57:18;77.70;2227.20
55329;DHT22;41205;44.264;19.884;2023-01-29T18:59:44;102.40;2227.20
55329;DHT22;41205;44.264;19.884;2023-01-29T19:02:14;77.70;2227.20
55329;DHT22;41205;44.264;19.884;2023-01-29T19:04:41;77.70;2227.20
55329;DHT22;41205;44.264;19.884;2023-01-29T19:07:08;77.70;2227.20
55329;DHT22;41205;44.264;19.884;2023-01-29T19:09:34;77.70;2227.20
55329;DHT22;41205;44.264;19.884;2023-01-29T19:12:00;102.50;2227.20
55329;DHT22;41205;44.264;19.884;2023-01-29T19:14:26;102.60;2227.20
55329;DHT22;41205;44.264;19.884;2023-01-29T19:16:52;102.50;2227.20
55329;DHT22;41205;44.264;19.884;2023-01-29T19:19:17;102.50;2227.20
55329;DHT22;41205;44.264;19.884;2023-01-29T19:21:43;77.70;2227.20
55329;DHT22;41205;44.264;19.884;2023-01-29T19:24:09;77.70;2227.20
55329;DHT22;41205;44.264;19.884;2023-01-29T19:26:36;77.70;2227.20
55329;DHT22;41205;44.264;19.884;2023-01-29T19:29:02;102.50;2227.20
55329;DHT22;41205;44.264;19.884;2023-01-29T19:31:28;102.50;2227.20
55329;DHT22;41205;44.264;19.884;2023-01-29T19:33:56;77.60;2227.20
55329;DHT22;41205;44.264;19.884;2023-01-29T19:36:22;77.50;2227.20
55329;DHT22;41205;44.264;19.884;2023-01-29T19:38:48;77.50;2227.20
55329;DHT22;41205;44.264;19.884;2023-01-29T19:41:14;77.50;2227.20
55329;DHT22;41205;44.264;19.884;2023-01-29T19:43:39;77.60;2227.20
55329;DHT22;41205;44.264;19.884;2023-01-29T19:46:06;77.60;2227.20
55329;DHT22;41205;44.264;19.884;2023-01-29T19:48:32;77.50;2227.20
55329;DHT22;41205;44.264;19.884;2023-01-29T19:51:00;77.50;2227.20
55329;DHT22;41205;44.264;19.884;2023-01-29T19:53:29;77.50;2227.20
55329;DHT22;41205;44.264;19.884;2023-01-29T19:56:16;77.70;2227.20
55329;DHT22;41205;44.264;19.884;2023-01-29T19:58:42;77.70;2227.20
55329;DHT22;41205;44.264;19.884;2023-01-29T20:01:19;77.70;2227.20
55329;DHT22;41205;44.264;19.884;2023-01-29T20:03:47;77.60;2227.20
55329;DHT22;41205;44.264;19.884;2023-01-29T20:06:15;77.70;2227.20
55329;DHT22;41205;44.264;19.884;2023-01-29T20:08:42;77.70;2227.20
55329;DHT22;41205;44.264;19.884;2023-01-29T20:11:12;102.40;2227.20
55329;DHT22;41205;44.264;19.884;2023-01-29T20:13:37;77.70;2227.20
55329;DHT22;41205;44.264;19.884;2023-01-29T20:16:03;77.70;2227.20
55329;DHT22;41205;44.264;19.884;2023-01-29T20:18:30;77.60;2227.20
55329;DHT22;41205;44.264;19.884;2023-01-29T20:20:56;77.60;2227.20
55329;DHT22;41205;44.264;19.884;2023-01-29T20:23:22;77.60;2227.20
55329;DHT22;41205;44.264;19.884;2023-01-29T20:25:48;77.70;2227.20
55329;DHT22;41205;44.264;19.884;2023-01-29T20:28:14;77.70;2227.20
55329;DHT22;41205;44.264;19.884;2023-01-29T20:30:42;77.70;2227.20
55329;DHT22;41205;44.264;19.884;2023-01-29T20:33:08;77.70;2227.20
55329;DHT22;41205;44.264;19.884;2023-01-29T20:35:35;102.40;2227.20
55329;DHT22;41205;44.264;19.884;2023-01-29T20:38:02;77.70;2227.20
55329;DHT22;41205;44.264;19.884;2023-01-29T20:40:28;77.70;2227.20
55329;DHT22;41205;44.264;19.884;2023-01-29T20:42:54;102.40;2227.20
55329;DHT22;41205;44.264;19.884;2023-01-29T20:45:20;102.40;2227.20
55329;DHT22;41205;44.264;19.884;2023-01-29T20:47:47;77.70;2227.20
55329;DHT22;41205;44.264;19.884;2023-01-29T20:50:14;102.40;2227.20
55329;DHT22;41205;44.264;19.884;2023-01-29T20:52:41;77.70;2227.20
55329;DHT22;41205;44.264;19.884;2023-01-29T20:55:08;102.40;2227.20
55329;DHT22;41205;44.264;19.884;2023-01-29T20:57:35;102.40;2227.20
55329;DHT22;41205;44.264;19.884;2023-01-29T21:00:01;102.50;2227.20
55329;DHT22;41205;44.264;19.884;2023-01-29T21:02:26;102.40;2227.20
55329;DHT22;41205;44.264;19.884;2023-01-29T21:04:52;77.70;2227.20
55329;DHT22;41205;44.264;19.884;2023-01-29T21:07:18;77.60;2227.20
55329;DHT22;41205;44.264;19.884;2023-01-29T21:09:44;77.70;2227.20
55329;DHT22;41205;44.264;19.884;2023-01-29T21:12:10;102.40;2227.20
55329;DHT22;41205;44.264;19.884;2023-01-29T21:14:35;102.40;2227.20
55329;DHT22;41205;44.264;19.884;2023-01-29T21:17:01;102.40;2227.20
55329;DHT22;41205;44.264;19.884;2023-01-29T21:19:27;77.70;2227.20
55329;DHT22;41205;44.264;19.884;2023-01-29T21:21:54;77.50;2227.20
55329;DHT22;41205;44.264;19.884;2023-01-29T21:24:22;77.60;2227.20
55329;DHT22;41205;44.264;19.884;2023-01-29T21:26:48;77.60;2227.20
55329;DHT22;41205;44.264;19.884;2023-01-29T21:29:14;77.70;2227.20
55329;DHT22;41205;44.264;19.884;2023-01-29T21:31:40;77.40;2227.20
55329;DHT22;41205;44.264;19.884;2023-01-29T21:34:06;77.60;2227.20